Time;durP1;ratioP1;P1;durP2;ratioP2;P2;SDS_P1;SDS_P2;PMS_P1;PMS_P2;Temp;Humidity;BMP_temperature;BMP_pressure;BME280_temperature;BME280_humidity;BME280_pressure;Samples;Min_cycle;Max_cycle;Signal;HPM_P1;HPM_P2
2022/06/08 00:01:50;;;;;;;37.20;34.70;;;;;;;20.39;52.67;100946.31;5079362;28;20097;-79
2022/06/08 00:04:17;;;;;;;34.70;32.25;;;;;;;20.37;52.54;100932.09;5067410;28;20028;-79
2022/06/08 00:06:43;;;;;;;37.90;34.90;;;;;;;20.34;52.93;100933.50;5066958;28;20085;-79
2022/06/08 00:09:09;;;;;;;35.60;32.95;;;;;;;20.34;52.71;100940.94;5070856;28;20037;-79
2022/06/08 00:11:35;;;;;;;36.05;33.40;;;;;;;20.30;52.91;100947.00;5063000;28;20032;-80
2022/06/08 00:14:00;;;;;;;36.35;33.58;;;;;;;20.29;52.80;100933.59;5069732;28;20373;-78
2022/06/08 00:16:26;;;;;;;37.67;34.88;;;;;;;20.28;52.89;100938.25;5069752;28;20089;-79
2022/06/08 00:18:51;;;;;;;37.40;34.67;;;;;;;20.27;52.88;100933.09;5070321;28;20029;-79
2022/06/08 00:21:17;;;;;;;39.63;36.53;;;;;;;20.25;52.70;100930.63;5049244;28;20057;-79
2022/06/08 00:23:43;;;;;;;38.85;35.90;;;;;;;20.24;52.67;100928.22;5064942;28;20032;-79
2022/06/08 00:26:09;;;;;;;37.42;34.53;;;;;;;20.22;52.68;100933.19;5070452;28;20485;-80
2022/06/08 00:28:34;;;;;;;36.72;33.72;;;;;;;20.20;52.94;100930.72;5064520;28;20350;-79
2022/06/08 00:31:01;;;;;;;37.00;34.05;;;;;;;20.17;53.04;100928.59;5071249;28;20480;-78
2022/06/08 00:33:27;;;;;;;38.83;35.67;;;;;;;20.16;52.94;100921.50;5065508;28;20047;-79
2022/06/08 00:35:52;;;;;;;36.65;33.70;;;;;;;20.14;52.86;100923.72;5071008;28;20032;-79
2022/06/08 00:38:18;;;;;;;38.78;35.60;;;;;;;20.12;52.73;100920.47;5068269;28;20044;-79
2022/06/08 00:41:09;;;;;;;35.35;32.95;;;;;;;20.11;52.75;100918.84;5069391;28;20029;-79
2022/06/08 00:43:35;;;;;;;38.25;35.25;;;;;;;20.09;52.65;100904.63;5060171;28;20039;-79
2022/06/08 00:46:02;;;;;;;37.40;34.65;;;;;;;20.07;52.79;100906.84;5058132;28;20036;-79
2022/06/08 00:48:32;;;;;;;35.13;32.30;;;;;;;20.06;52.91;100902.50;5067769;28;20115;-79
2022/06/08 00:50:58;;;;;;;37.95;34.80;;;;;;;20.03;53.03;100892.09;5070767;28;20032;-78
2022/06/08 00:53:57;;;;;;;38.15;35.22;;;;;;;20.02;53.19;100898.72;5067850;28;20110;-79
2022/06/08 00:56:29;;;;;;;37.05;33.97;;;;;;;19.99;53.13;100886.44;5067620;28;20067;-79
2022/06/08 00:58:57;;;;;;;37.15;34.22;;;;;;;19.97;53.14;100885.91;5071353;28;20058;-79
2022/06/08 01:01:23;;;;;;;36.72;33.90;;;;;;;19.96;52.68;100886.19;5071211;28;20032;-79
2022/06/08 01:03:49;;;;;;;38.83;35.65;;;;;;;19.94;52.66;100877.50;5071656;28;20036;-79
2022/06/08 01:06:24;;;;;;;36.88;33.95;;;;;;;19.92;52.84;100880.53;5070078;28;20089;-79
2022/06/08 01:08:53;;;;;;;37.83;34.65;;;;;;;19.91;52.78;100875.34;5071050;28;20039;-79
2022/06/08 01:11:25;;;;;;;;;;;;;;;19.88;52.96;100865.78;5071979;28;20081;-79
2022/06/08 01:13:52;;;;;;;36.67;33.88;;;;;;;19.84;52.90;100868.31;5069462;28;20357;-79
2022/06/08 01:16:17;;;;;;;35.05;32.42;;;;;;;19.83;53.06;100863.13;5069859;28;20047;-79
2022/06/08 01:18:43;;;;;;;40.63;37.53;;;;;;;19.81;53.00;100862.66;5070667;28;20037;-79
2022/06/08 01:21:20;;;;;;;38.65;35.75;;;;;;;19.80;53.08;100855.53;5053036;28;20075;-80
2022/06/08 01:23:53;;;;;;;36.97;34.22;;;;;;;19.77;53.08;100850.66;5070880;28;20112;-80
2022/06/08 01:26:29;;;;;;;36.63;33.72;;;;;;;19.76;52.87;100855.31;5070160;28;20033;-79
2022/06/08 01:29:31;;;;;;;36.28;33.40;;;;;;;19.74;52.80;100851.25;5071125;28;20078;-79
2022/06/08 01:32:15;;;;;;;37.03;34.13;;;;;;;19.72;53.14;100843.31;5070799;28;20028;-79
2022/06/08 01:34:56;;;;;;;37.05;33.97;;;;;;;19.70;52.61;100844.75;5061011;28;20036;-79
2022/06/08 01:37:35;;;;;;;37.65;34.40;;;;;;;19.67;53.24;100846.97;5071385;28;20524;-79
2022/06/08 01:40:24;;;;;;;37.83;35.00;;;;;;;19.66;53.15;100839.03;5059264;28;20438;-79
2022/06/08 01:43:02;;;;;;;37.67;34.60;;;;;;;19.64;52.99;100838.53;5069165;28;20025;-80
2022/06/08 01:45:58;;;;;;;35.00;32.37;;;;;;;19.62;53.07;100827.03;5064261;28;20412;-79
2022/06/08 01:48:26;;;;;;;36.35;33.55;;;;;;;19.60;53.07;100823.78;5071099;28;20111;-80
2022/06/08 01:51:23;;;;;;;35.38;32.67;;;;;;;19.58;52.86;100817.78;5069012;28;20043;-79
2022/06/08 01:53:54;;;;;;;35.88;33.10;;;;;;;19.57;52.88;100821.66;5072708;28;20025;-79
2022/06/08 01:56:47;;;;;;;36.55;33.75;;;;;;;19.55;53.22;100818.41;5072906;28;20506;-79
2022/06/08 01:59:22;;;;;;;36.45;33.55;;;;;;;19.53;53.04;100813.25;5074259;28;20036;-79
2022/06/08 02:02:15;;;;;;;35.08;32.47;;;;;;;19.52;52.81;100805.31;5074386;28;20062;-79
2022/06/08 02:05:03;;;;;;;35.03;32.58;;;;;;;19.49;52.92;100798.50;5074110;28;20564;-79
2022/06/08 02:07:32;;;;;;;;;;;;;;;19.46;52.71;100793.63;5055896;28;20062;-79
2022/06/08 02:09:57;;;;;;;34.42;31.65;;;;;;;19.44;52.79;100799.41;5073857;28;20379;-79
2022/06/08 02:12:23;;;;;;;34.05;31.55;;;;;;;19.43;53.04;100792.31;5074497;28;20064;-79
2022/06/08 02:15:09;;;;;;;33.35;30.77;;;;;;;19.41;53.00;100772.63;5072871;28;20124;-79
2022/06/08 02:17:47;;;;;;;33.45;30.98;;;;;;;19.40;53.23;100775.66;5073702;28;20032;-80
2022/06/08 02:20:21;;;;;;;33.65;31.17;;;;;;;19.39;53.09;100774.84;5072647;28;20028;-79
2022/06/08 02:23:15;;;;;;;32.30;29.80;;;;;;;19.38;53.13;100765.00;5073989;28;20561;-79
2022/06/08 02:25:49;;;;;;;34.22;31.38;;;;;;;19.37;53.09;100760.63;5052267;28;20044;-79
2022/06/08 02:28:44;;;;;;;32.55;30.33;;;;;;;19.35;52.90;100754.66;5073836;28;20067;-79
2022/06/08 02:31:15;;;;;;;36.08;33.35;;;;;;;19.33;52.76;100748.66;5072101;28;20085;-79
2022/06/08 02:36:36;;;;;;;33.53;31.25;;;;;;;19.30;52.95;100746.50;5073781;28;20131;-80
2022/06/08 02:39:29;;;;;;;32.88;30.52;;;;;;;19.29;52.73;100733.13;5073253;28;20029;-79
2022/06/08 02:42:00;;;;;;;32.67;30.40;;;;;;;19.27;52.82;100736.16;5071598;28;20423;-80
2022/06/08 02:44:30;;;;;;;33.90;31.60;;;;;;;19.24;53.03;100732.09;5074140;28;20514;-81
2022/06/08 02:47:10;;;;;;;33.00;30.77;;;;;;;19.24;52.54;100728.56;5073420;28;20036;-80
2022/06/08 02:49:36;;;;;;;32.72;30.38;;;;;;;19.22;52.57;100731.59;5069005;28;20033;-80
2022/06/08 02:52:08;;;;;;;34.42;31.88;;;;;;;19.21;52.66;100738.19;5056936;28;20032;-80
2022/06/08 02:54:33;;;;;;;35.33;32.45;;;;;;;19.21;53.03;100737.38;5073671;28;20082;-79
2022/06/08 02:57:26;;;;;;;34.53;31.83;;;;;;;19.20;53.21;100735.72;5073990;28;20029;-79
2022/06/08 03:00:21;;;;;;;34.05;31.50;;;;;;;19.20;52.89;100735.72;5059127;28;20491;-79
2022/06/08 03:02:50;;;;;;;34.50;32.03;;;;;;;19.17;52.83;100737.16;5071379;28;20128;-79
2022/06/08 03:05:18;;;;;;;32.72;30.35;;;;;;;19.16;52.88;100734.72;5071403;28;20032;-79
2022/06/08 03:07:56;;;;;;;31.38;29.08;;;;;;;19.16;53.17;100735.53;5072209;28;20036;-77
2022/06/08 03:10:24;;;;;;;33.58;30.77;;;;;;;19.15;52.91;100733.91;5073024;28;20093;-79
2022/06/08 03:13:33;;;;;;;31.83;29.23;;;;;;;19.13;52.95;100736.16;5071075;28;20432;-78
2022/06/08 03:16:06;;;;;;;33.63;31.27;;;;;;;19.11;52.87;100732.88;5072694;28;20290;-78
2022/06/08 03:18:31;;;;;;;32.28;29.95;;;;;;;19.10;52.73;100733.19;5073025;28;20038;-78
2022/06/08 03:21:00;;;;;;;32.40;29.95;;;;;;;19.09;52.98;100735.09;5071057;28;20127;-79
2022/06/08 03:23:26;;;;;;;31.40;29.02;;;;;;;19.08;52.95;100722.53;5072334;28;20491;-78
2022/06/08 03:25:52;;;;;;;31.65;29.45;;;;;;;19.07;53.30;100720.09;5071907;28;20033;-79
2022/06/08 03:28:17;;;;;;;31.52;29.23;;;;;;;19.07;52.89;100722.84;5070898;28;20036;-79
2022/06/08 03:30:44;;;;;;;33.30;31.13;;;;;;;19.05;53.04;100733.25;5071545;28;20473;-79
2022/06/08 03:33:10;;;;;;;31.83;29.63;;;;;;;19.04;53.21;100726.97;5072497;28;20051;-78
2022/06/08 03:35:37;;;;;;;31.17;29.00;;;;;;;19.02;52.95;100719.09;5071575;28;20020;-79
2022/06/08 03:38:03;;;;;;;32.97;30.70;;;;;;;19.01;52.94;100728.41;5072424;28;20032;-79
2022/06/08 03:40:29;;;;;;;29.98;27.98;;;;;;;18.99;53.12;100725.13;5072860;28;20422;-79
2022/06/08 03:42:55;;;;;;;30.15;28.20;;;;;;;18.99;53.07;100727.88;5070656;28;20114;-79
2022/06/08 03:45:21;;;;;;;30.02;27.92;;;;;;;18.97;52.82;100732.81;5070903;28;20115;-79
2022/06/08 03:47:50;;;;;;;30.25;28.33;;;;;;;18.96;53.25;100725.75;5070967;28;20094;-79
2022/06/08 03:50:22;;;;;;;31.90;29.60;;;;;;;18.95;53.10;100732.34;5070892;28;20052;-78
2022/06/08 03:52:55;;;;;;;30.52;28.10;;;;;;;18.96;52.97;100724.94;5070923;28;20451;-78
2022/06/08 03:55:22;;;;;;;31.40;29.15;;;;;;;18.93;52.83;100720.88;5071839;28;20036;-79
2022/06/08 03:57:50;;;;;;;30.02;27.88;;;;;;;18.91;52.99;100714.88;5072226;28;20064;-78
2022/06/08 04:00:17;;;;;;;31.27;29.23;;;;;;;18.91;52.98;100711.34;5070906;28;20029;-78
2022/06/08 04:02:45;;;;;;;29.20;27.38;;;;;;;18.90;53.30;100709.69;5072180;28;20511;-79
2022/06/08 04:05:10;;;;;;;30.60;28.47;;;;;;;18.88;53.35;100698.25;5071614;28;20043;-78
2022/06/08 04:07:35;;;;;;;30.05;27.85;;;;;;;18.86;53.00;100695.81;5073032;28;20107;-79
2022/06/08 04:10:02;;;;;;;29.00;27.17;;;;;;;18.85;53.06;100686.00;5070492;28;20028;-79
2022/06/08 04:12:27;;;;;;;30.05;28.15;;;;;;;18.85;53.12;100682.41;5053715;28;20460;-79
2022/06/08 04:14:53;;;;;;;29.33;27.48;;;;;;;18.83;53.02;100685.47;5069799;28;20691;-78
2022/06/08 04:17:19;;;;;;;30.17;28.08;;;;;;;18.81;53.20;100696.69;5071466;28;20086;-79
2022/06/08 04:19:49;;;;;;;28.88;26.98;;;;;;;18.80;53.34;100700.56;5072169;28;20035;-78
2022/06/08 04:22:20;;;;;;;30.60;28.60;;;;;;;18.79;53.10;100698.91;5069902;28;20059;-78
2022/06/08 04:24:46;;;;;;;29.05;27.25;;;;;;;18.78;53.46;100700.03;5071481;28;20060;-78
2022/06/08 04:27:12;;;;;;;31.20;29.17;;;;;;;18.77;53.04;100694.84;5054281;28;20035;-78
2022/06/08 04:29:38;;;;;;;29.25;27.45;;;;;;;18.77;53.01;100689.38;5072043;28;20036;-79
2022/06/08 04:32:09;;;;;;;30.13;28.25;;;;;;;18.75;53.01;100694.34;5070241;28;20060;-81
2022/06/08 04:34:36;;;;;;;29.15;27.05;;;;;;;18.74;53.27;100693.50;5070816;28;20028;-79
2022/06/08 04:37:02;;;;;;;28.55;26.85;;;;;;;18.73;53.27;100678.22;5071573;28;20419;-79
2022/06/08 04:39:28;;;;;;;29.00;27.17;;;;;;;18.72;53.62;100681.22;5070111;28;20044;-78
2022/06/08 04:41:53;;;;;;;29.00;27.10;;;;;;;18.71;53.09;100674.94;5070678;28;20032;-78
2022/06/08 04:44:19;;;;;;;29.45;27.65;;;;;;;18.71;53.46;100672.22;5070889;28;20036;-78
2022/06/08 04:46:44;;;;;;;28.58;26.73;;;;;;;18.69;53.20;100657.22;5071514;28;20028;-79
2022/06/08 04:49:10;;;;;;;30.00;27.90;;;;;;;18.68;53.62;100667.34;5070901;28;20507;-80
2022/06/08 04:51:35;;;;;;;29.50;27.60;;;;;;;18.68;53.58;100672.00;5070662;28;20032;-80
2022/06/08 04:54:01;;;;;;;29.63;27.70;;;;;;;18.67;53.73;100675.84;5070255;28;20394;-80
2022/06/08 04:56:27;;;;;;;30.30;28.20;;;;;;;18.66;53.44;100669.56;5071445;28;20075;-80
2022/06/08 04:58:55;;;;;;;29.55;27.65;;;;;;;18.66;53.57;100668.75;5071320;28;20391;-80
2022/06/08 05:01:21;;;;;;;30.38;28.20;;;;;;;18.63;53.53;100670.16;5053579;28;20036;-80
2022/06/08 05:03:47;;;;;;;31.23;29.02;;;;;;;18.63;54.01;100663.88;5070394;28;20472;-79
2022/06/08 05:06:12;;;;;;;28.90;26.92;;;;;;;18.62;53.79;100664.97;5069954;28;20036;-80
2022/06/08 05:08:40;;;;;;;28.90;27.13;;;;;;;18.60;53.78;100663.38;5070838;28;20031;-80
2022/06/08 05:11:06;;;;;;;28.27;26.35;;;;;;;18.59;53.85;100664.47;5071326;28;20036;-79
2022/06/08 05:13:34;;;;;;;27.33;25.58;;;;;;;18.59;53.48;100661.72;5069402;28;20081;-79
2022/06/08 05:16:00;;;;;;;26.42;24.88;;;;;;;18.58;53.52;100662.84;5070155;28;20047;-80
2022/06/08 05:18:26;;;;;;;27.33;25.55;;;;;;;18.58;54.03;100665.59;5069974;28;20040;-80
2022/06/08 05:20:53;;;;;;;27.48;25.77;;;;;;;18.58;53.89;100665.59;5069342;28;20500;-80
2022/06/08 05:23:22;;;;;;;28.33;26.63;;;;;;;18.57;53.83;100653.03;5071044;28;20033;-80
2022/06/08 05:25:47;;;;;;;26.13;24.60;;;;;;;18.56;53.95;100637.72;5071925;28;20025;-79
2022/06/08 05:28:13;;;;;;;28.00;26.33;;;;;;;18.56;53.63;100640.44;5073633;28;20442;-80
2022/06/08 05:30:40;;;;;;;27.77;26.05;;;;;;;18.55;53.75;100641.56;5073591;28;20037;-79
2022/06/08 05:33:06;;;;;;;27.63;26.05;;;;;;;18.55;53.68;100638.84;5074163;28;20024;-79
2022/06/08 05:35:33;;;;;;;26.58;24.98;;;;;;;18.56;54.02;100631.44;5074993;28;20040;-79
2022/06/08 05:37:58;;;;;;;26.83;25.13;;;;;;;18.54;53.73;100628.19;5073868;28;20063;-79
2022/06/08 05:40:25;;;;;;;28.05;26.33;;;;;;;18.53;53.84;100624.63;5073629;28;20059;-79
2022/06/08 05:42:51;;;;;;;27.95;26.20;;;;;;;18.52;54.17;100625.75;5074713;28;20040;-79
2022/06/08 05:45:21;;;;;;;29.20;27.38;;;;;;;18.53;54.02;100616.44;5074293;28;20032;-79
2022/06/08 05:47:47;;;;;;;26.27;24.73;;;;;;;18.52;54.27;100628.50;5074475;28;20070;-78
2022/06/08 05:50:13;;;;;;;27.42;25.63;;;;;;;18.52;54.05;100616.72;5066079;28;20522;-79
2022/06/08 05:52:39;;;;;;;26.98;25.33;;;;;;;18.52;54.43;100622.19;5074730;28;20332;-78
2022/06/08 05:55:05;;;;;;;25.95;24.45;;;;;;;18.52;54.01;100624.91;5073754;28;20077;-79
2022/06/08 05:57:31;;;;;;;25.98;24.38;;;;;;;18.52;54.11;100628.50;5074328;28;20089;-78
2022/06/08 05:59:56;;;;;;;26.52;25.02;;;;;;;18.51;54.10;100623.31;5072643;28;20427;-78
2022/06/08 06:02:22;;;;;;;27.45;25.38;;;;;;;18.51;54.45;100615.09;5056386;28;20033;-78
2022/06/08 06:04:47;;;;;;;25.30;23.92;;;;;;;18.52;54.08;100616.72;5072584;28;20306;-78
2022/06/08 06:07:13;;;;;;;26.30;24.75;;;;;;;18.51;54.29;100615.09;5074402;28;20427;-80
2022/06/08 06:09:40;;;;;;;26.33;24.73;;;;;;;18.50;54.58;100610.75;5073360;28;20036;-78
2022/06/08 06:12:06;;;;;;;27.67;25.98;;;;;;;18.50;54.34;100617.03;5074028;28;20461;-79
2022/06/08 06:14:32;;;;;;;25.77;24.20;;;;;;;18.49;54.57;100612.66;5072801;28;20040;-79
2022/06/08 06:16:58;;;;;;;25.33;23.92;;;;;;;18.50;54.52;100611.56;5073480;28;20048;-79
2022/06/08 06:19:24;;;;;;;27.25;25.65;;;;;;;18.49;54.17;100609.13;5073443;28;20033;-78
2022/06/08 06:21:49;;;;;;;26.75;24.70;;;;;;;18.48;54.20;100611.03;5074371;28;20075;-79
2022/06/08 06:24:15;;;;;;;29.88;27.98;;;;;;;18.49;54.37;100614.59;5066785;28;20426;-80
2022/06/08 06:26:40;;;;;;;27.65;25.83;;;;;;;18.50;54.88;100608.03;5051565;28;20082;-78
2022/06/08 06:29:06;;;;;;;25.23;23.83;;;;;;;18.49;54.38;100607.19;5066352;28;20611;-78
2022/06/08 06:31:45;;;;;;;27.75;26.08;;;;;;;18.50;54.61;100610.75;5070356;28;20086;-78
2022/06/08 06:34:17;;;;;;;26.02;24.48;;;;;;;18.48;54.98;100600.09;5038507;28;20057;-78
2022/06/08 06:36:43;;;;;;;24.88;23.38;;;;;;;18.48;54.39;100600.09;5066024;28;20037;-79
2022/06/08 06:39:09;;;;;;;25.42;23.83;;;;;;;18.49;55.02;100598.19;5054890;28;20433;-78
2022/06/08 06:41:35;;;;;;;25.77;24.27;;;;;;;18.49;54.98;100584.50;5063489;28;20422;-78
2022/06/08 06:44:00;;;;;;;26.63;24.73;;;;;;;18.48;54.61;100591.91;5064013;28;20199;-78
2022/06/08 06:46:26;;;;;;;27.77;25.75;;;;;;;18.47;54.94;100595.75;5059822;28;20028;-78
2022/06/08 06:48:52;;;;;;;25.77;24.27;;;;;;;18.48;55.36;100589.16;5060096;28;20041;-78
2022/06/08 06:51:18;;;;;;;25.33;23.83;;;;;;;18.49;55.25;100592.69;5068001;28;20106;-80
2022/06/08 06:53:43;;;;;;;26.42;24.85;;;;;;;18.48;55.51;100583.69;5049449;28;20048;-79
2022/06/08 06:56:09;;;;;;;26.10;24.55;;;;;;;18.50;55.25;100586.94;5054857;28;20053;-79
2022/06/08 06:58:35;;;;;;;27.02;25.42;;;;;;;18.51;55.69;100590.50;5064021;28;20457;-77
2022/06/08 07:01:02;;;;;;;26.65;25.15;;;;;;;18.50;55.82;100586.94;5065500;28;20123;-77
2022/06/08 07:03:27;;;;;;;28.17;26.23;;;;;;;18.51;55.81;100582.28;5067735;28;20038;-77
2022/06/08 07:05:53;;;;;;;27.58;25.90;;;;;;;18.50;56.15;100577.94;5058963;28;20119;-77
2022/06/08 07:08:18;;;;;;;25.65;24.15;;;;;;;18.52;56.05;100576.53;5031040;28;20036;-79
2022/06/08 07:11:32;;;;;;;25.92;24.27;;;;;;;18.54;56.40;100581.69;5054702;28;20045;-77
2022/06/08 07:13:29;;;;;;;27.20;25.60;;;;;;;18.54;56.29;100574.28;5060836;28;20044;-77
2022/06/08 07:15:55;;;;;;;28.00;26.15;;;;;;;18.57;56.51;100578.34;5048189;28;20098;-77
2022/06/08 07:18:20;;;;;;;27.98;25.77;;;;;;;18.58;56.69;100578.03;5070387;28;20119;-80
2022/06/08 07:20:45;;;;;;;25.67;24.23;;;;;;;18.60;57.10;100575.81;5063580;28;20029;-77
2022/06/08 07:23:11;;;;;;;27.08;25.48;;;;;;;18.62;57.21;100569.22;5056320;28;20116;-77
2022/06/08 07:25:36;;;;;;;28.55;26.95;;;;;;;18.63;57.03;100571.69;5060089;28;20094;-77
2022/06/08 07:28:01;;;;;;;28.35;25.85;;;;;;;18.65;57.51;100566.72;5075868;28;20400;-78
2022/06/08 07:30:27;;;;;;;26.73;25.05;;;;;;;18.67;57.34;100564.50;5080883;28;20127;-77
2022/06/08 07:32:52;;;;;;;25.38;23.88;;;;;;;18.69;56.96;100559.50;5037025;28;20114;-78
2022/06/08 07:35:18;;;;;;;26.00;24.38;;;;;;;18.71;57.35;100567.44;5064941;28;20473;-77
2022/06/08 07:37:43;;;;;;;25.85;24.35;;;;;;;18.74;56.96;100569.56;5058575;28;20060;-77
2022/06/08 07:40:09;;;;;;;26.70;25.08;;;;;;;18.76;57.46;100562.72;5059055;28;20116;-77
2022/06/08 07:42:37;;;;;;;26.80;25.10;;;;;;;18.79;57.58;100561.28;5068344;28;20112;-77
2022/06/08 07:45:04;;;;;;;27.27;24.85;;;;;;;18.81;57.41;100570.00;5057854;28;20495;-77
2022/06/08 07:47:30;;;;;;;27.50;25.65;;;;;;;18.83;57.44;100570.53;5054231;28;20479;-77
2022/06/08 07:49:55;;;;;;;26.92;25.20;;;;;;;18.84;57.42;100566.66;5053689;28;20139;-77
2022/06/08 07:52:21;;;;;;;26.90;24.75;;;;;;;18.85;57.45;100568.31;5057482;28;20043;-76
2022/06/08 07:54:48;;;;;;;26.70;25.10;;;;;;;18.88;57.22;100572.38;5063165;28;20470;-76
2022/06/08 07:57:33;;;;;;;27.05;25.40;;;;;;;18.90;57.08;100573.69;5064418;28;20028;-76
2022/06/08 07:59:58;;;;;;;25.67;24.25;;;;;;;18.91;56.93;100572.56;5056081;28;20039;-74
2022/06/08 08:02:24;;;;;;;28.13;26.38;;;;;;;18.94;56.91;100573.88;5062798;28;20033;-79
2022/06/08 08:04:50;;;;;;;27.38;25.48;;;;;;;18.97;56.99;100574.06;5055739;28;20039;-78
2022/06/08 08:07:15;;;;;;;26.70;24.98;;;;;;;18.98;56.97;100570.25;5065660;28;20128;-70
2022/06/08 08:09:41;;;;;;;26.27;24.77;;;;;;;19.02;57.56;100574.00;5057983;28;20032;-78
2022/06/08 08:12:07;;;;;;;25.92;24.52;;;;;;;19.05;57.38;100577.22;5066137;28;20037;-79
2022/06/08 08:14:33;;;;;;;28.67;26.90;;;;;;;19.07;57.25;100575.00;5056857;28;20098;-77
2022/06/08 08:16:59;;;;;;;28.27;26.58;;;;;;;19.10;57.34;100577.13;5052913;28;20036;-77
2022/06/08 08:19:25;;;;;;;25.65;23.50;;;;;;;19.13;57.79;100576.53;5059987;28;20393;-76
2022/06/08 08:21:51;;;;;;;26.42;24.85;;;;;;;19.16;57.38;100581.41;5060237;28;20061;-76
2022/06/08 08:24:18;;;;;;;27.80;26.05;;;;;;;19.17;57.66;100580.28;5043221;28;20067;-76
2022/06/08 08:26:44;;;;;;;29.60;27.42;;;;;;;19.20;57.27;100582.38;5058898;28;20408;-76
2022/06/08 08:29:10;;;;;;;25.80;24.42;;;;;;;19.23;57.19;100573.59;5061683;28;20109;-76
2022/06/08 08:31:37;;;;;;;27.05;25.40;;;;;;;19.26;57.09;100575.72;5058417;28;20067;-76
2022/06/08 08:34:04;;;;;;;26.60;24.90;;;;;;;19.27;57.09;100577.31;5058204;28;20068;-77
2022/06/08 08:36:29;;;;;;;26.85;25.15;;;;;;;19.31;57.31;100580.28;5060958;28;20119;-78
2022/06/08 08:38:55;;;;;;;26.58;25.27;;;;;;;19.33;57.04;100584.34;5067802;28;20123;-76
2022/06/08 08:44:36;;;;;;;27.77;26.08;;;;;;;19.36;57.13;100577.44;5056364;28;20064;-76
2022/06/08 08:47:09;;;;;;;26.30;24.58;;;;;;;19.38;56.74;100580.69;5065744;28;20099;-75
2022/06/08 08:49:35;;;;;;;26.23;24.42;;;;;;;19.38;56.92;100581.50;5067788;28;20089;-76
2022/06/08 08:52:10;;;;;;;26.70;25.15;;;;;;;19.40;56.86;100584.75;5059414;28;20057;-76
2022/06/08 08:54:46;;;;;;;27.25;25.42;;;;;;;19.41;56.79;100580.88;5054042;28;20028;-76
2022/06/08 08:57:11;;;;;;;27.33;25.17;;;;;;;19.43;57.05;100586.06;5057421;28;20040;-77
2022/06/08 08:59:38;;;;;;;27.58;25.98;;;;;;;19.43;56.73;100584.13;5058473;28;20043;-77
2022/06/08 09:05:19;;;;;;;25.58;24.13;;;;;;;19.46;56.63;100596.41;5061285;28;20036;-79
2022/06/08 09:07:45;;;;;;;28.30;26.63;;;;;;;19.46;56.67;100588.97;5060630;28;20025;-78
2022/06/08 09:10:24;;;;;;;25.75;24.13;;;;;;;19.49;56.72;100587.56;5061261;28;20028;-79
2022/06/08 09:12:50;;;;;;;26.00;24.48;;;;;;;19.50;56.56;100589.16;5061090;28;20032;-79
2022/06/08 09:15:37;;;;;;;25.80;24.40;;;;;;;19.52;56.69;100591.63;5046522;28;20028;-79
2022/06/08 09:18:04;;;;;;;27.02;25.27;;;;;;;19.53;56.98;100587.75;5071714;28;20467;-78
2022/06/08 09:20:37;;;;;;;26.50;24.90;;;;;;;19.54;56.84;100595.66;5076001;28;20045;-78
2022/06/08 09:23:37;;;;;;;26.55;25.15;;;;;;;19.57;56.89;100592.31;5063792;28;20103;-79
2022/06/08 09:26:15;;;;;;;26.77;25.17;;;;;;;19.59;57.11;100594.75;5063275;28;20028;-79
2022/06/08 09:28:41;;;;;;;27.58;25.63;;;;;;;19.59;56.65;100592.00;5070216;28;20032;-78
2022/06/08 09:31:24;;;;;;;26.98;25.13;;;;;;;19.61;56.80;100584.31;5060057;28;20041;-79
2022/06/08 09:34:02;;;;;;;27.38;25.80;;;;;;;19.63;56.91;100590.25;5065956;28;20033;-78
2022/06/08 09:36:27;;;;;;;26.58;25.00;;;;;;;19.64;56.44;100589.16;5055200;28;20056;-79
2022/06/08 09:38:54;;;;;;;28.08;26.48;;;;;;;19.65;56.54;100590.78;5054609;28;20389;-80
2022/06/08 09:41:50;;;;;;;28.00;26.27;;;;;;;19.67;56.80;100594.06;5062891;28;20032;-83
2022/06/08 09:44:21;;;;;;;27.98;26.10;;;;;;;19.67;57.33;100592.13;5049038;28;20086;-81
2022/06/08 09:53:05;;;;;;;29.17;27.15;;;;;;;19.69;57.30;100582.81;5056831;28;20316;-80
2022/06/08 09:55:53;;;;;;;28.67;26.63;;;;;;;19.69;57.43;100589.09;5063056;28;20047;-79
2022/06/08 09:58:28;;;;;;;27.70;26.20;;;;;;;19.70;57.35;100582.47;5054954;28;20054;-80
2022/06/08 10:01:35;;;;;;;29.35;27.35;;;;;;;19.72;57.35;100576.69;5064164;28;20080;-80
2022/06/08 10:04:03;;;;;;;29.10;26.90;;;;;;;19.71;57.52;100578.63;5056919;28;20028;-81
2022/06/08 10:07:05;;;;;;;27.85;26.02;;;;;;;19.73;57.94;100579.13;5059017;28;20029;-79
2022/06/08 10:10:09;;;;;;;28.65;27.05;;;;;;;19.73;57.58;100586.53;5057783;28;20050;-80
2022/06/08 10:12:44;;;;;;;28.70;26.90;;;;;;;19.72;57.70;100569.28;5033300;28;20037;-79
2022/06/08 10:15:24;;;;;;;29.40;27.58;;;;;;;19.74;57.74;100572.53;5052298;28;20059;-80
2022/06/08 10:18:21;;;;;;;28.60;26.95;;;;;;;19.74;57.35;100571.72;5068753;28;20032;-80
2022/06/08 10:21:39;;;;;;;29.67;27.88;;;;;;;19.74;57.34;100569.78;5065387;28;20037;-82
2022/06/08 10:24:27;;;;;;;;;;;;;;;19.73;57.52;100561.88;5059364;28;20119;-80
2022/06/08 10:26:57;;;;;;;28.63;26.80;;;;;;;19.72;57.24;100569.28;5046513;28;19958;-80
2022/06/08 10:29:49;;;;;;;28.88;27.02;;;;;;;19.73;57.70;100559.97;5062191;28;20435;-82
2022/06/08 10:32:23;;;;;;;28.27;26.15;;;;;;;19.73;57.72;100564.59;5067447;28;20079;-82
2022/06/08 10:34:53;;;;;;;28.77;27.08;;;;;;;19.74;57.55;100560.75;5053129;28;20033;-81
2022/06/08 10:37:30;;;;;;;26.88;25.38;;;;;;;19.75;57.97;100559.63;5061943;28;20033;-80
2022/06/08 10:39:56;;;;;;;29.25;27.55;;;;;;;19.74;57.66;100558.03;5056643;28;20068;-80
2022/06/08 10:42:40;;;;;;;31.17;28.45;;;;;;;19.75;57.89;100554.94;5072397;28;20144;-80
2022/06/08 10:45:43;;;;;;;29.13;27.52;;;;;;;19.76;57.75;100556.59;5054253;28;20035;-80
2022/06/08 10:48:14;;;;;;;26.90;25.38;;;;;;;19.75;57.69;100554.16;5070987;28;20450;-80
2022/06/08 10:50:48;;;;;;;28.02;26.33;;;;;;;19.75;57.84;100551.41;5053067;28;20033;-79
2022/06/08 10:56:28;;;;;;;29.83;28.02;;;;;;;19.75;57.93;100549.47;5058436;28;20055;-80
2022/06/08 10:59:24;;;;;;;28.92;27.38;;;;;;;19.75;58.07;100545.94;5062686;28;20029;-80
2022/06/08 11:01:49;;;;;;;29.50;27.80;;;;;;;19.73;58.25;100554.47;5059334;28;20442;-79
2022/06/08 11:04:38;;;;;;;28.90;27.20;;;;;;;19.73;58.04;100543.50;5061273;28;20488;-80
2022/06/08 11:07:05;;;;;;;28.35;26.65;;;;;;;19.73;58.19;100550.91;5047618;28;20048;-80
2022/06/08 11:09:33;;;;;;;27.20;25.77;;;;;;;19.72;58.33;100544.63;5055011;28;20029;-80
2022/06/08 11:12:13;;;;;;;28.48;26.45;;;;;;;19.73;58.42;100546.25;5075102;28;20041;-75
2022/06/08 11:14:44;;;;;;;28.50;26.35;;;;;;;19.73;58.10;100542.69;5056766;28;20549;-81
2022/06/08 11:17:22;;;;;;;28.23;26.58;;;;;;;19.73;58.01;100542.69;5063054;28;20067;-80
2022/06/08 11:19:53;;;;;;;27.73;26.23;;;;;;;19.73;58.10;100542.69;5056753;28;20036;-79
2022/06/08 11:22:25;;;;;;;28.88;27.20;;;;;;;19.71;58.26;100534.78;5063692;28;20048;-79
2022/06/08 11:24:57;;;;;;;28.67;26.88;;;;;;;19.71;57.76;100537.53;5060794;28;20143;-80
2022/06/08 11:27:25;;;;;;;29.90;28.00;;;;;;;19.71;57.93;100533.97;5050469;28;20660;-79
2022/06/08 11:29:54;;;;;;;27.65;26.05;;;;;;;19.69;57.99;100528.78;5053042;28;20098;-79
2022/06/08 11:32:38;;;;;;;27.83;26.33;;;;;;;19.69;58.00;100530.72;5069098;28;20037;-81
2022/06/08 11:35:25;;;;;;;28.65;27.15;;;;;;;19.66;57.66;100527.44;5051524;28;20039;-81
2022/06/08 11:38:18;;;;;;;27.33;25.92;;;;;;;19.67;57.66;100523.63;5054819;28;20051;-80
2022/06/08 11:40:46;;;;;;;27.88;26.00;;;;;;;19.66;57.94;100521.97;5047263;28;20581;-81
2022/06/08 11:43:13;;;;;;;27.42;25.95;;;;;;;19.66;57.99;100524.72;5051044;28;20037;-82
2022/06/08 11:45:42;;;;;;;28.17;26.77;;;;;;;19.67;58.19;100520.06;5063756;28;20115;-80
2022/06/08 11:48:23;;;;;;;27.63;26.13;;;;;;;19.67;58.32;100523.63;5046962;28;20044;-81